NCAR-RAP Real-Time Weather Data

Output produced by METARs form (21 April 2018  09:47 UTC)
found at http://weather.rap.ucar.edu/surface/
 
Conditions at: KTPA observed 21 April 2018  08:53 UTC
Temperature: 19.4°C (67°F)
Dewpoint: 16.7°C (62°F) [RH = 84%]
Pressure (altimeter): 30.10 inches Hg (1019.4 mb)
[Sea-level pressure: 1019.3 mb]
Winds: from the NE (40 degrees) at 8 MPH (7 knots; 3.6 m/s)
Visibility: 8 miles (13 km)
Ceiling: 2000 feet AGL
Clouds: overcast cloud deck at 2000 feet AGL
Present Weather: no significant weather observed at this time
KTPA 210853Z 04007KT 8SM OVC020 19/17 A3010 RMK AO2 SLP193 T01940167 56014

Conditions at: KTPA observed 21 April 2018  07:53 UTC
Temperature: 19.4°C (67°F)
Dewpoint: 16.7°C (62°F) [RH = 84%]
Pressure (altimeter): 30.11 inches Hg (1019.7 mb)
[Sea-level pressure: 1019.7 mb]
Winds: from the NE (40 degrees) at 8 MPH (7 knots; 3.6 m/s)
Visibility: 8 miles (13 km)
Ceiling: 25000 feet AGL
Clouds: few clouds at 1600 feet AGL
overcast cloud deck at 25000 feet AGL
Present Weather: no significant weather observed at this time
KTPA 210753Z 04007KT 8SM FEW016 OVC250 19/17 A3011 RMK AO2 SLP197 T01940167

Conditions at: KTPA observed 21 April 2018  06:53 UTC
Temperature: 20.0°C (68°F)
Dewpoint: 16.7°C (62°F) [RH = 81%]
Pressure (altimeter): 30.12 inches Hg (1020.1 mb)
[Sea-level pressure: 1019.9 mb]
Winds: from the NE (50 degrees) at 8 MPH (7 knots; 3.6 m/s)
Visibility: 9 miles (14 km)
Ceiling: 4800 feet AGL
Clouds: scattered clouds at 1400 feet AGL
broken clouds at 4800 feet AGL
Present Weather: no significant weather observed at this time
KTPA 210653Z 05007KT 9SM SCT014 BKN048 20/17 A3012 RMK AO2 SLP199 T02000167

Conditions at: KTPA observed 21 April 2018  05:53 UTC
Temperature: 20.0°C (68°F)
Dewpoint: 16.7°C (62°F) [RH = 81%]
Pressure (altimeter): 30.15 inches Hg (1021.1 mb)
[Sea-level pressure: 1020.7 mb]
Winds: from the NE (40 degrees) at 9 MPH (8 knots; 4.2 m/s)
Visibility: 10 or more miles (16+ km)
Ceiling: 4500 feet AGL
Clouds: scattered clouds at 1300 feet AGL
broken clouds at 4500 feet AGL
Present Weather: no significant weather observed at this time
KTPA 210553Z 04008KT 10SM SCT013 BKN045 20/17 A3015 RMK AO2 SLP207 SCT V BKN T02000167 10244 20200 58003

Conditions at: KTPA observed 21 April 2018  04:53 UTC
Temperature: 20.6°C (69°F)
Dewpoint: 16.7°C (62°F) [RH = 78%]
Pressure (altimeter): 30.15 inches Hg (1021.1 mb)
[Sea-level pressure: 1021.0 mb]
Winds: from the NE (40 degrees) at 9 MPH (8 knots; 4.2 m/s)
gusting to 20 MPH (17 knots; 8.8 m/s)
Visibility: 10 or more miles (16+ km)
Ceiling: 1500 feet AGL
Clouds: few clouds at 1000 feet AGL
broken clouds at 1500 feet AGL
broken clouds at 4400 feet AGL
Present Weather: no significant weather observed at this time
KTPA 210453Z 04008G17KT 10SM FEW010 BKN015 BKN044 21/17 A3015 RMK AO2 SLP210 T02060167 402780183

Conditions at: KTPA observed 21 April 2018  03:53 UTC
Temperature: 21.1°C (70°F)
Dewpoint: 16.1°C (61°F) [RH = 73%]
Pressure (altimeter): 30.15 inches Hg (1021.1 mb)
[Sea-level pressure: 1020.9 mb]
Winds: from the NE (40 degrees) at 13 MPH (11 knots; 5.7 m/s)
gusting to 20 MPH (17 knots; 8.8 m/s)
Visibility: 10 or more miles (16+ km)
Ceiling: 4400 feet AGL
Clouds: few clouds at 1100 feet AGL
scattered clouds at 2000 feet AGL
broken clouds at 4400 feet AGL
Present Weather: no significant weather observed at this time
KTPA 210353Z 04011G17KT 10SM FEW011 SCT020 BKN044 21/16 A3015 RMK AO2 SLP209 T02110161

Conditions at: KTPA observed 21 April 2018  02:53 UTC
Temperature: 21.7°C (71°F)
Dewpoint: 16.7°C (62°F) [RH = 73%]
Pressure (altimeter): 30.15 inches Hg (1021.1 mb)
[Sea-level pressure: 1021.1 mb]
Winds: from the NE (40 degrees) at 12 MPH (10 knots; 5.2 m/s)
gusting to 18 MPH (16 knots; 8.3 m/s)
Visibility: 10 or more miles (16+ km)
Ceiling: 2100 feet AGL
Clouds: overcast cloud deck at 2100 feet AGL
Present Weather: no significant weather observed at this time
KTPA 210253Z 04010G16KT 10SM OVC021 22/17 A3015 RMK AO2 SLP211 CIG LWRG STDLY T02170167 51019

Conditions at: KTPA observed 21 April 2018  01:53 UTC
Temperature: 23.3°C (74°F)
Dewpoint: 17.2°C (63°F) [RH = 69%]
Pressure (altimeter): 30.14 inches Hg (1020.7 mb)
[Sea-level pressure: 1020.6 mb]
Winds: from the NE (40 degrees) at 10 MPH (9 knots; 4.7 m/s)
gusting to 18 MPH (16 knots; 8.3 m/s)
Visibility: 10 or more miles (16+ km)
Ceiling: 2500 feet AGL
Clouds: broken clouds at 2500 feet AGL
Present Weather: no significant weather observed at this time
KTPA 210153Z 04009G16KT 10SM BKN025 23/17 A3014 RMK AO2 SLP206 T02330172

Conditions at: KTPA observed 21 April 2018  01:28 UTC
Temperature: 23.3°C (74°F)
Dewpoint: 17.2°C (63°F) [RH = 69%]
Pressure (altimeter): 30.14 inches Hg (1020.7 mb)
Winds: from the N (10 degrees) at 9 MPH (8 knots; 4.2 m/s)
Visibility: 10 or more miles (16+ km)
Ceiling: 2700 feet AGL
Clouds: broken clouds at 2700 feet AGL
overcast cloud deck at 4600 feet AGL
Present Weather: no significant weather observed at this time
KTPA 210128Z 01008KT 10SM BKN027 OVC046 23/17 A3014 RMK AO2 T02330172

Conditions at: KTPA observed 21 April 2018  00:53 UTC
Temperature: 23.3°C (74°F)
Dewpoint: 16.7°C (62°F) [RH = 66%]
Pressure (altimeter): 30.12 inches Hg (1020.1 mb)
[Sea-level pressure: 1019.7 mb]
Winds: from the N (350 degrees) at 7 MPH (6 knots; 3.1 m/s)
Visibility: 10 or more miles (16+ km)
Ceiling: at least 12,000 feet AGL
Clouds: few clouds at 3900 feet AGL
scattered clouds at 4800 feet AGL
Present Weather: no significant weather observed at this time
KTPA 210053Z 35006KT 10SM FEW039 SCT048 23/17 A3012 RMK AO2 SLP197 T02330167

Conditions at: KTPA observed 20 April 2018  23:53 UTC
Temperature: 24.4°C (76°F)
Dewpoint: 15.6°C (60°F) [RH = 58%]
Pressure (altimeter): 30.10 inches Hg (1019.4 mb)
[Sea-level pressure: 1019.2 mb]
Winds: from the NW (320 degrees) at 8 MPH (7 knots; 3.6 m/s)
Visibility: 10 or more miles (16+ km)
Ceiling: at least 12,000 feet AGL
Clouds: few clouds at 5500 feet AGL
scattered clouds at 35000 feet AGL
Present Weather: no significant weather observed at this time
KTPA 202353Z 32007KT 10SM FEW055 SCT350 24/16 A3010 RMK AO2 SLP192 T02440156 10278 20244 53005

Conditions at: KTPA observed 20 April 2018  22:53 UTC
Temperature: 25.6°C (78°F)
Dewpoint: 16.1°C (61°F) [RH = 56%]
Pressure (altimeter): 30.09 inches Hg (1019.0 mb)
[Sea-level pressure: 1018.9 mb]
Winds: from the W (280 degrees) at 10 MPH (9 knots; 4.7 m/s)
Visibility: 10 or more miles (16+ km)
Ceiling: at least 12,000 feet AGL
Clouds: few clouds at 5500 feet AGL
few clouds at 35000 feet AGL
Present Weather: no significant weather observed at this time
KTPA 202253Z 28009KT 10SM FEW055 FEW350 26/16 A3009 RMK AO2 SLP189 T02560161

Conditions at: KTPA observed 20 April 2018  21:53 UTC
Temperature: 27.2°C (81°F)
Dewpoint: 17.2°C (63°F) [RH = 54%]
Pressure (altimeter): 30.09 inches Hg (1019.0 mb)
[Sea-level pressure: 1018.9 mb]
Winds: from the W (270 degrees) at 10 MPH (9 knots; 4.7 m/s)
Visibility: 10 or more miles (16+ km)
Ceiling: at least 12,000 feet AGL
Clouds: few clouds at 5500 feet AGL
few clouds at 35000 feet AGL
Present Weather: no significant weather observed at this time
KTPA 202153Z 27009KT 10SM FEW055 FEW350 27/17 A3009 RMK AO2 SLP189 T02720172

Conditions at: KTPA observed 20 April 2018  20:53 UTC
Temperature: 27.2°C (81°F)
Dewpoint: 17.8°C (64°F) [RH = 57%]
Pressure (altimeter): 30.09 inches Hg (1019.0 mb)
[Sea-level pressure: 1018.7 mb]
Winds: from the W (260 degrees) at 9 MPH (8 knots; 4.2 m/s)
Visibility: 10 or more miles (16+ km)
Ceiling: at least 12,000 feet AGL
Clouds: few clouds at 5000 feet AGL
Present Weather: no significant weather observed at this time
KTPA 202053Z 26008KT 10SM FEW050 27/18 A3009 RMK AO2 SLP187 T02720178 58015

Conditions at: KTPA observed 20 April 2018  19:53 UTC
Temperature: 27.2°C (81°F)
Dewpoint: 16.7°C (62°F) [RH = 53%]
Pressure (altimeter): 30.10 inches Hg (1019.4 mb)
[Sea-level pressure: 1019.2 mb]
Winds: from the WSW (250 degrees) at 10 MPH (9 knots; 4.7 m/s)
Visibility: 9 miles (14 km)
Ceiling: at least 12,000 feet AGL
Clouds: few clouds at 5000 feet AGL
few clouds at 34000 feet AGL
Present Weather: no significant weather observed at this time
KTPA 201953Z 25009KT 9SM FEW050 FEW340 27/17 A3010 RMK AO2 SLP192 T02720167

Conditions at: KTPA observed 20 April 2018  18:53 UTC
Temperature: 26.7°C (80°F)
Dewpoint: 16.7°C (62°F) [RH = 54%]
Pressure (altimeter): 30.12 inches Hg (1020.1 mb)
[Sea-level pressure: 1019.8 mb]
Winds: from the SSW (210 degrees) at 8 MPH (7 knots; 3.6 m/s)
Visibility: 10 or more miles (16+ km)
Ceiling: at least 12,000 feet AGL
Clouds: few clouds at 4500 feet AGL
few clouds at 32000 feet AGL
Present Weather: no significant weather observed at this time
KTPA 201853Z 21007KT 10SM FEW045 FEW320 27/17 A3012 RMK AO2 SLP198 T02670167

Conditions at: KTPA observed 20 April 2018  17:53 UTC
Temperature: 26.7°C (80°F)
Dewpoint: 16.1°C (61°F) [RH = 52%]
Pressure (altimeter): 30.13 inches Hg (1020.4 mb)
[Sea-level pressure: 1020.2 mb]
Winds: from the SW (230 degrees) at 9 MPH (8 knots; 4.2 m/s)
Visibility: 10 or more miles (16+ km)
Ceiling: at least 12,000 feet AGL
Clouds: scattered clouds at 4000 feet AGL
Present Weather: no significant weather observed at this time
KTPA 201753Z 23008KT 10SM SCT040 27/16 A3013 RMK AO2 SLP202 T02670161 10267 20200 58004

Conditions at: KTPA observed 20 April 2018  16:53 UTC
Temperature: 26.1°C (79°F)
Dewpoint: 16.1°C (61°F) [RH = 54%]
Pressure (altimeter): 30.13 inches Hg (1020.4 mb)
[Sea-level pressure: 1020.3 mb]
Winds: from the WSW (240 degrees) at 9 MPH (8 knots; 4.2 m/s)
Visibility: 10 or more miles (16+ km)
Ceiling: at least 12,000 feet AGL
Clouds: scattered clouds at 4000 feet AGL
Present Weather: no significant weather observed at this time
KTPA 201653Z 24008KT 10SM SCT040 26/16 A3013 RMK AO2 SLP203 T02610161

Conditions at: KTPA observed 20 April 2018  15:53 UTC
Temperature: 26.1°C (79°F)
Dewpoint: 17.2°C (63°F) [RH = 58%]
Pressure (altimeter): 30.14 inches Hg (1020.7 mb)
[Sea-level pressure: 1020.7 mb]
Winds: from the SW (220 degrees) at 7 MPH (6 knots; 3.1 m/s)
Visibility: 10 or more miles (16+ km)
Ceiling: at least 12,000 feet AGL
Clouds: scattered clouds at 3000 feet AGL
Present Weather: no significant weather observed at this time
KTPA 201553Z 22006KT 10SM SCT030 26/17 A3014 RMK AO2 SLP207 T02610172

Conditions at: KTPA observed 20 April 2018  14:53 UTC
Temperature: 25.6°C (78°F)
Dewpoint: 17.2°C (63°F) [RH = 60%]
Pressure (altimeter): 30.14 inches Hg (1020.7 mb)
[Sea-level pressure: 1020.6 mb]
Winds: variable direction winds at 3 MPH (3 knots; 1.6 m/s)
Visibility: 10 or more miles (16+ km)
Ceiling: at least 12,000 feet AGL
Clouds: scattered clouds at 3000 feet AGL
Present Weather: no significant weather observed at this time
KTPA 201453Z VRB03KT 10SM SCT030 26/17 A3014 RMK AO2 SLP206 SCT V BKN T02560172 51007

Conditions at: KTPA observed 20 April 2018  13:53 UTC
Temperature: 23.9°C (75°F)
Dewpoint: 17.8°C (64°F) [RH = 69%]
Pressure (altimeter): 30.14 inches Hg (1020.7 mb)
[Sea-level pressure: 1020.6 mb]
Winds: from the N (360 degrees) at 5 MPH (4 knots; 2.1 m/s)
Visibility: 9 miles (14 km)
Ceiling: at least 12,000 feet AGL
Clouds: scattered clouds at 3000 feet AGL
Present Weather: no significant weather observed at this time
KTPA 201353Z 36004KT 9SM SCT030 24/18 A3014 RMK AO2 SLP206 T02390178

Conditions at: KTPA observed 20 April 2018  12:53 UTC
Temperature: 22.2°C (72°F)
Dewpoint: 18.3°C (65°F) [RH = 79%]
Pressure (altimeter): 30.14 inches Hg (1020.7 mb)
[Sea-level pressure: 1020.4 mb]
Winds: from the NW (320 degrees) at 3 MPH (3 knots; 1.6 m/s)
Visibility: 10 or more miles (16+ km)
Ceiling: at least 12,000 feet AGL
Clouds: scattered clouds at 3000 feet AGL
Present Weather: no significant weather observed at this time
KTPA 201253Z 32003KT 10SM SCT030 22/18 A3014 RMK AO2 SLP204 T02220183

Conditions at: KTPA observed 20 April 2018  12:36 UTC
Temperature: 21.7°C (71°F)
Dewpoint: 18.3°C (65°F) [RH = 81%]
Pressure (altimeter): 30.14 inches Hg (1020.7 mb)
Winds: calm
Visibility: 10 or more miles (16+ km)
Ceiling: at least 12,000 feet AGL
Clouds: few clouds at 2000 feet AGL
scattered clouds at 3000 feet AGL
Present Weather: no significant weather observed at this time
KTPA 201236Z 00000KT 10SM FEW020 SCT030 22/18 A3014 RMK AO2 T02170183

Conditions at: KTPA observed 20 April 2018  12:14 UTC
Temperature: 21.1°C (70°F)
Dewpoint: 18.3°C (65°F) [RH = 84%]
Pressure (altimeter): 30.13 inches Hg (1020.4 mb)
Winds: calm
Visibility: 10 or more miles (16+ km)
Ceiling: 1800 feet AGL
Clouds: broken clouds at 1800 feet AGL
broken clouds at 2500 feet AGL
Present Weather: no significant weather observed at this time
KTPA 201214Z 00000KT 10SM BKN018 BKN025 21/18 A3013 RMK AO2 T02110183

Conditions at: KTPA observed 20 April 2018  11:53 UTC
Temperature: 20.0°C (68°F)
Dewpoint: 18.3°C (65°F) [RH = 90%]
Pressure (altimeter): 30.12 inches Hg (1020.1 mb)
[Sea-level pressure: 1019.9 mb]
Winds: calm
Visibility: 8 miles (13 km)
Ceiling: at least 12,000 feet AGL
Clouds: few clouds at 1500 feet AGL
few clouds at 25000 feet AGL
Present Weather: no significant weather observed at this time
KTPA 201153Z 00000KT 8SM FEW015 FEW250 20/18 A3012 RMK AO2 SLP199 T02000183 10206 20183 53017

Conditions at: KTPA observed 20 April 2018  10:53 UTC
Temperature: 18.9°C (66°F)
Dewpoint: 16.7°C (62°F) [RH = 87%]
Pressure (altimeter): 30.09 inches Hg (1019.0 mb)
[Sea-level pressure: 1018.8 mb]
Winds: calm
Visibility: 10 or more miles (16+ km)
Ceiling: at least 12,000 feet AGL
Clouds: few clouds at 1500 feet AGL
Present Weather: no significant weather observed at this time
KTPA 201053Z 00000KT 10SM FEW015 19/17 A3009 RMK AO2 SLP188 T01890167

Conditions at: KTPA observed 20 April 2018  09:53 UTC
Temperature: 18.9°C (66°F)
Dewpoint: 16.7°C (62°F) [RH = 87%]
Pressure (altimeter): 30.08 inches Hg (1018.7 mb)
[Sea-level pressure: 1018.5 mb]
Winds: from the NNW (330 degrees) at 3 MPH (3 knots; 1.6 m/s)
Visibility: 10 or more miles (16+ km)
Ceiling: at least 12,000 feet AGL
Clouds: few clouds at 2200 feet AGL
Present Weather: no significant weather observed at this time
KTPA 200953Z 33003KT 10SM FEW022 19/17 A3008 RMK AO2 SLP185 T01890167